Time;durP1;ratioP1;P1;durP2;ratioP2;P2;SDS_P1;SDS_P2;PMS_P1;PMS_P2;Temp;Humidity;BMP_temperature;BMP_pressure;BME280_temperature;BME280_humidity;BME280_pressure;Samples;Min_cycle;Max_cycle;Signal;HPM_P1;HPM_P2
2021/10/12 00:01:10;;;;;;;14.40;6.80;;;12.40;99.90;;;;;;5087433;28;20164;-65
2021/10/12 00:03:36;;;;;;;15.88;7.10;;;12.30;99.90;;;;;;5087603;28;20679;-64
2021/10/12 00:06:02;;;;;;;13.25;6.38;;;12.20;99.90;;;;;;5086855;28;20711;-65
2021/10/12 00:08:28;;;;;;;16.45;6.82;;;12.30;99.90;;;;;;5086929;28;20182;-64
2021/10/12 00:10:54;;;;;;;15.40;6.63;;;12.30;99.90;;;;;;5085923;28;20212;-64
2021/10/12 00:13:20;;;;;;;17.55;7.07;;;12.30;99.90;;;;;;5086966;28;20653;-65
2021/10/12 00:15:46;;;;;;;15.20;6.82;;;12.40;99.90;;;;;;5086853;28;20209;-65
2021/10/12 00:18:12;;;;;;;14.15;7.32;;;12.30;99.90;;;;;;5087149;28;20187;-65
2021/10/12 00:20:38;;;;;;;18.63;7.47;;;12.30;99.90;;;;;;5086973;28;20183;-65
2021/10/12 00:23:07;;;;;;;17.13;6.63;;;12.40;99.90;;;;;;5086836;28;20170;-65
2021/10/12 00:25:33;;;;;;;20.50;7.38;;;12.20;99.90;;;;;;5086682;28;20176;-65
2021/10/12 00:27:58;;;;;;;19.65;6.45;;;12.20;99.90;;;;;;5087074;28;20183;-64
2021/10/12 00:30:24;;;;;;;14.63;6.25;;;12.20;99.90;;;;;;5086909;28;20167;-65
2021/10/12 00:32:50;;;;;;;13.73;6.32;;;12.10;99.90;;;;;;5086805;28;20167;-65
2021/10/12 00:35:16;;;;;;;22.55;7.30;;;12.10;99.90;;;;;;5086530;28;20200;-64
2021/10/12 00:37:41;;;;;;;14.25;6.45;;;12.00;99.90;;;;;;5086618;28;20182;-65
2021/10/12 00:40:08;;;;;;;12.98;6.22;;;12.00;99.90;;;;;;5086696;28;20160;-64
2021/10/12 00:42:35;;;;;;;15.90;6.40;;;12.10;99.90;;;;;;5085291;28;20210;-64
2021/10/12 00:45:07;;;;;;;19.90;6.78;;;12.10;99.90;;;;;;5086408;28;20180;-65
2021/10/12 00:47:33;;;;;;;18.20;6.53;;;12.10;99.90;;;;;;5086487;28;20170;-64
2021/10/12 00:49:59;;;;;;;18.02;7.80;;;12.10;99.90;;;;;;5086438;28;20250;-64
2021/10/12 00:52:24;;;;;;;15.68;6.65;;;12.10;99.90;;;;;;5086413;28;20204;-64
2021/10/12 00:54:50;;;;;;;16.50;7.18;;;12.00;99.90;;;;;;5085985;28;20221;-64
2021/10/12 00:57:16;;;;;;;14.20;7.38;;;11.90;99.90;;;;;;5086325;28;20159;-64
2021/10/12 00:59:42;;;;;;;14.10;6.88;;;12.00;99.90;;;;;;5086664;28;20167;-64
2021/10/12 01:02:08;;;;;;;18.63;7.00;;;11.90;99.90;;;;;;5086091;28;20201;-64
2021/10/12 01:04:34;;;;;;;10.13;6.90;;;12.20;99.90;;;;;;5086309;28;20159;-64
2021/10/12 01:07:01;;;;;;;14.13;6.55;;;12.20;99.90;;;;;;5086256;28;20190;-65
2021/10/12 01:09:26;;;;;;;17.13;7.07;;;12.10;99.90;;;;;;5085300;28;20212;-65
2021/10/12 01:11:52;;;;;;;14.93;6.50;;;12.00;99.90;;;;;;5086435;28;20668;-64
2021/10/12 01:14:18;;;;;;;12.40;6.82;;;11.90;99.90;;;;;;5086335;28;20210;-64
2021/10/12 01:16:44;;;;;;;24.02;7.43;;;11.90;99.90;;;;;;5084805;28;20172;-64
2021/10/12 01:19:11;;;;;;;20.15;6.88;;;11.90;99.90;;;;;;5086384;28;20160;-64
2021/10/12 01:21:43;;;;;;;15.20;7.22;;;11.90;99.90;;;;;;5085908;28;20188;-64
2021/10/12 01:24:10;;;;;;;15.05;6.93;;;11.90;99.90;;;;;;5084562;28;20183;-64
2021/10/12 01:26:38;;;;;;;16.13;6.57;;;12.00;99.90;;;;;;5086056;28;20163;-65
2021/10/12 01:29:05;;;;;;;12.38;6.85;;;11.90;99.90;;;;;;5084988;28;20258;-64
2021/10/12 01:31:31;;;;;;;16.40;7.55;;;11.90;99.90;;;;;;5085943;28;20228;-64
2021/10/12 01:33:57;;;;;;;17.10;7.28;;;11.80;99.90;;;;;;5085950;28;20184;-64
2021/10/12 01:36:23;;;;;;;16.85;6.82;;;11.60;99.90;;;;;;5085837;28;20168;-64
2021/10/12 01:38:49;;;;;;;14.35;6.32;;;11.70;99.90;;;;;;5085529;28;20255;-64
2021/10/12 01:41:15;;;;;;;19.45;7.03;;;11.80;99.90;;;;;;5086163;28;20160;-64
2021/10/12 01:43:42;;;;;;;14.80;6.40;;;11.70;99.90;;;;;;5085886;28;20171;-65
2021/10/12 01:46:08;;;;;;;19.65;7.50;;;11.90;99.90;;;;;;5085663;28;20168;-64
2021/10/12 01:48:35;;;;;;;17.00;6.93;;;11.90;99.90;;;;;;5086250;28;20167;-64
2021/10/12 01:51:01;;;;;;;22.48;7.47;;;11.80;99.90;;;;;;5085739;28;20160;-65
2021/10/12 01:53:27;;;;;;;20.60;6.85;;;11.80;99.90;;;;;;5085471;28;20698;-65
2021/10/12 01:55:53;;;;;;;12.13;6.55;;;11.70;99.90;;;;;;5085697;28;20168;-64
2021/10/12 01:58:19;;;;;;;15.93;7.05;;;11.80;99.90;;;;;;5085979;28;20203;-65
2021/10/12 02:00:45;;;;;;;22.40;6.82;;;11.80;99.90;;;;;;5085575;28;20167;-65
2021/10/12 02:03:11;;;;;;;22.67;7.30;;;11.70;99.90;;;;;;5085896;28;20160;-64
2021/10/12 02:05:37;;;;;;;19.50;6.25;;;11.70;99.90;;;;;;5085447;28;20172;-65
2021/10/12 02:08:03;;;;;;;21.92;6.43;;;11.60;99.90;;;;;;5085447;28;20220;-65
2021/10/12 02:10:28;;;;;;;14.68;6.18;;;11.60;99.90;;;;;;5085621;28;20584;-65
2021/10/12 02:12:54;;;;;;;14.07;6.40;;;11.60;99.90;;;;;;5085489;28;20168;-64
2021/10/12 02:15:20;;;;;;;17.25;5.50;;;11.60;99.90;;;;;;5085575;28;20191;-65
2021/10/12 02:17:46;;;;;;;11.85;5.38;;;11.60;99.90;;;;;;5085584;28;20164;-65
2021/10/12 02:20:12;;;;;;;18.27;6.05;;;11.60;99.90;;;;;;5086414;28;20160;-65
2021/10/12 02:22:40;;;;;;;14.85;6.05;;;11.70;99.90;;;;;;5089247;28;20160;-65
2021/10/12 02:25:08;;;;;;;14.95;5.82;;;11.70;99.90;;;;;;5088932;28;20176;-64
2021/10/12 02:27:34;;;;;;;12.95;4.95;;;11.70;99.90;;;;;;5089168;28;20171;-64
2021/10/12 02:30:00;;;;;;;13.07;5.35;;;11.70;99.90;;;;;;5089314;28;20247;-64
2021/10/12 02:32:26;;;;;;;14.45;5.38;;;11.70;99.90;;;;;;5089275;28;20164;-64
2021/10/12 02:34:52;;;;;;;16.90;6.00;;;11.70;99.90;;;;;;5087566;28;20187;-64
2021/10/12 02:37:19;;;;;;;12.88;5.72;;;11.60;99.90;;;;;;5088986;28;20621;-64
2021/10/12 02:39:45;;;;;;;11.00;5.50;;;11.60;99.90;;;;;;5088817;28;20220;-64
2021/10/12 02:42:11;;;;;;;16.80;5.38;;;11.60;99.90;;;;;;5089033;28;20196;-64
2021/10/12 02:44:37;;;;;;;18.33;6.13;;;11.60;99.90;;;;;;5089165;28;20160;-65
2021/10/12 02:47:03;;;;;;;18.17;5.68;;;11.90;99.90;;;;;;5088645;28;20172;-64
2021/10/12 02:49:28;;;;;;;27.73;5.88;;;12.00;99.90;;;;;;5089304;28;20218;-65
2021/10/12 02:51:54;;;;;;;16.02;6.00;;;12.10;99.90;;;;;;5088771;28;20168;-64
2021/10/12 02:54:20;;;;;;;13.57;5.22;;;12.10;99.90;;;;;;5088383;28;20191;-65
2021/10/12 02:56:46;;;;;;;13.95;5.32;;;12.00;99.90;;;;;;5088455;28;20192;-64
2021/10/12 02:59:11;;;;;;;15.02;5.57;;;12.00;99.90;;;;;;5088775;28;20182;-64
2021/10/12 03:01:37;;;;;;;18.42;5.35;;;12.00;99.90;;;;;;5088528;28;20160;-65
2021/10/12 03:04:03;;;;;;;14.68;5.97;;;12.00;99.90;;;;;;5088658;28;20164;-64
2021/10/12 03:06:29;;;;;;;17.13;6.03;;;12.00;99.90;;;;;;5088380;28;20226;-64
2021/10/12 03:08:54;;;;;;;13.65;4.97;;;12.10;99.90;;;;;;5088091;28;20215;-65
2021/10/12 03:11:20;;;;;;;11.02;4.93;;;12.00;99.90;;;;;;5088494;28;20168;-64
2021/10/12 03:13:46;;;;;;;10.07;4.95;;;12.10;99.90;;;;;;5088306;28;20175;-64
2021/10/12 03:16:11;;;;;;;13.82;4.80;;;12.30;99.90;;;;;;5088151;28;20183;-64
2021/10/12 03:18:38;;;;;;;13.25;5.00;;;12.20;99.90;;;;;;5088408;28;20232;-65
2021/10/12 03:21:04;;;;;;;12.75;4.82;;;12.20;99.90;;;;;;5087942;28;20195;-65
2021/10/12 03:23:30;;;;;;;12.52;4.88;;;12.20;99.90;;;;;;5087824;28;20679;-64
2021/10/12 03:25:56;;;;;;;14.30;5.32;;;12.20;99.90;;;;;;5087870;28;20171;-65
2021/10/12 03:28:21;;;;;;;15.63;5.93;;;12.20;99.90;;;;;;5088281;28;20168;-64
2021/10/12 03:30:47;;;;;;;13.48;5.35;;;12.20;99.90;;;;;;5087683;28;20168;-65
2021/10/12 03:33:16;;;;;;;15.05;5.45;;;12.10;99.90;;;;;;5088212;28;20190;-64
2021/10/12 03:35:59;;;;;;;14.73;5.65;;;12.10;99.90;;;;;;5086507;28;20187;-66
2021/10/12 03:38:27;;;;;;;11.70;5.13;;;12.10;99.90;;;;;;5087603;28;20164;-65
2021/10/12 03:40:54;;;;;;;18.83;5.78;;;12.10;99.90;;;;;;5087879;28;20172;-65
2021/10/12 03:43:21;;;;;;;16.17;5.85;;;12.10;99.90;;;;;;5087788;28;20161;-65
2021/10/12 03:45:47;;;;;;;15.80;5.72;;;12.00;99.90;;;;;;5087446;28;20172;-65
2021/10/12 03:48:13;;;;;;;11.60;5.90;;;12.20;99.90;;;;;;5087870;28;20202;-65
2021/10/12 03:50:38;;;;;;;18.05;5.75;;;12.30;99.90;;;;;;5087658;28;20168;-64
2021/10/12 03:53:04;;;;;;;14.38;5.55;;;12.30;99.90;;;;;;5087155;28;20663;-64
2021/10/12 03:55:30;;;;;;;15.33;5.47;;;12.30;99.90;;;;;;5087180;28;20187;-65
2021/10/12 03:57:56;;;;;;;16.33;5.43;;;12.40;99.90;;;;;;5086118;28;20641;-65
2021/10/12 04:00:22;;;;;;;13.75;5.53;;;12.10;99.90;;;;;;5087184;28;20152;-65
2021/10/12 04:02:47;;;;;;;10.13;4.93;;;12.10;99.90;;;;;;5087021;28;20243;-65
2021/10/12 04:05:13;;;;;;;11.55;5.93;;;12.10;99.90;;;;;;5087451;28;20175;-65
2021/10/12 04:07:39;;;;;;;12.43;5.45;;;12.10;99.90;;;;;;5086870;28;20213;-64
2021/10/12 04:10:05;;;;;;;12.77;5.57;;;12.20;99.90;;;;;;5086751;28;20684;-64
2021/10/12 04:12:31;;;;;;;11.23;5.85;;;12.30;99.90;;;;;;5085822;28;20171;-65
2021/10/12 04:14:56;;;;;;;13.18;5.50;;;12.20;99.90;;;;;;5086780;28;20188;-65
2021/10/12 04:17:22;;;;;;;14.52;4.65;;;12.20;99.90;;;;;;5086780;28;20246;-64
2021/10/12 04:19:48;;;;;;;13.70;5.57;;;12.10;99.90;;;;;;5086949;28;20179;-64
2021/10/12 04:22:13;;;;;;;13.63;5.32;;;12.30;99.90;;;;;;5086815;28;20527;-64
2021/10/12 04:24:40;;;;;;;12.10;6.30;;;12.20;99.90;;;;;;5086348;28;20547;-65
2021/10/12 04:27:05;;;;;;;15.32;6.55;;;12.20;99.90;;;;;;5086468;28;20172;-65
2021/10/12 04:29:31;;;;;;;17.35;6.60;;;12.10;99.90;;;;;;5084203;28;20456;-64
2021/10/12 04:31:58;;;;;;;15.95;5.93;;;12.50;99.90;;;;;;5086458;28;20164;-65
2021/10/12 04:34:24;;;;;;;15.60;5.80;;;12.50;99.90;;;;;;5086726;28;20222;-65
2021/10/12 04:36:50;;;;;;;11.32;5.90;;;12.50;99.90;;;;;;5085905;28;20156;-65
2021/10/12 04:39:15;;;;;;;14.05;6.50;;;12.60;99.90;;;;;;5085401;28;20413;-64
2021/10/12 04:41:41;;;;;;;9.18;5.55;;;12.60;99.90;;;;;;5086319;28;20183;-64
2021/10/12 04:44:09;;;;;;;13.52;5.32;;;12.50;99.90;;;;;;5085614;28;20171;-64
2021/10/12 04:46:37;;;;;;;16.42;5.97;;;12.40;99.90;;;;;;5086131;28;20258;-64
2021/10/12 04:49:03;;;;;;;18.33;5.93;;;12.30;99.90;;;;;;5085821;28;20164;-65
2021/10/12 04:51:29;;;;;;;12.82;5.63;;;12.40;99.90;;;;;;5085472;28;20909;-65
2021/10/12 04:53:54;;;;;;;12.50;5.20;;;12.60;99.90;;;;;;5084235;28;20255;-64
2021/10/12 04:56:20;;;;;;;13.43;5.57;;;12.50;99.90;;;;;;5086080;28;20168;-64
2021/10/12 04:58:46;;;;;;;10.35;5.32;;;12.50;99.90;;;;;;5085080;28;20164;-65
2021/10/12 05:01:11;;;;;;;12.70;4.95;;;12.40;99.90;;;;;;5086201;28;20163;-64
2021/10/12 05:03:37;;;;;;;13.63;4.93;;;12.30;99.90;;;;;;5085883;28;20156;-65
2021/10/12 05:06:02;;;;;;;10.48;5.43;;;12.30;99.90;;;;;;5085616;28;20171;-65
2021/10/12 05:08:28;;;;;;;11.98;5.38;;;12.30;99.90;;;;;;5084015;28;20186;-65
2021/10/12 05:10:54;;;;;;;20.23;6.13;;;12.20;99.90;;;;;;5085217;28;20141;-64
2021/10/12 05:13:19;;;;;;;11.35;5.35;;;12.20;99.90;;;;;;5085509;28;20187;-65
2021/10/12 05:15:49;;;;;;;10.73;5.40;;;12.20;99.90;;;;;;5085854;28;20278;-64
2021/10/12 05:18:21;;;;;;;14.85;6.00;;;12.20;99.90;;;;;;5085949;28;20160;-65
2021/10/12 05:20:46;;;;;;;8.85;5.45;;;12.30;99.90;;;;;;5085808;28;20136;-65
2021/10/12 05:23:13;;;;;;;17.08;5.85;;;12.30;99.90;;;;;;5084268;28;20189;-65
2021/10/12 05:25:39;;;;;;;16.77;5.88;;;12.70;99.90;;;;;;5084381;28;20191;-65
2021/10/12 05:28:05;;;;;;;17.10;6.25;;;12.50;99.90;;;;;;5085512;28;20715;-64
2021/10/12 05:30:34;;;;;;;12.68;6.40;;;12.40;99.90;;;;;;5086083;28;20171;-65
2021/10/12 05:32:59;;;;;;;19.33;6.15;;;12.40;99.90;;;;;;5085769;28;20665;-64
2021/10/12 05:35:25;;;;;;;14.60;5.80;;;12.20;99.90;;;;;;5085309;28;20222;-66
2021/10/12 05:37:51;;;;;;;17.88;6.63;;;12.20;99.90;;;;;;5085775;28;20167;-66
2021/10/12 05:40:16;;;;;;;11.20;5.97;;;12.10;99.90;;;;;;5085544;28;20178;-66
2021/10/12 05:42:42;;;;;;;14.60;5.82;;;12.10;99.90;;;;;;5085703;28;20160;-66
2021/10/12 05:45:08;;;;;;;11.52;6.22;;;12.00;99.90;;;;;;5085400;28;20199;-66
2021/10/12 05:47:33;;;;;;;16.63;6.30;;;11.90;99.90;;;;;;5085738;28;20176;-66
2021/10/12 05:49:59;;;;;;;13.13;6.32;;;12.00;99.90;;;;;;5084664;28;20172;-66
2021/10/12 05:52:25;;;;;;;18.30;7.18;;;11.90;99.90;;;;;;5085791;28;20164;-66
2021/10/12 05:55:04;;;;;;;21.33;6.75;;;11.90;99.90;;;;;;5087583;28;20253;-66
2021/10/12 05:57:36;;;;;;;23.52;7.10;;;11.90;99.90;;;;;;5089519;28;20633;-66
2021/10/12 06:00:03;;;;;;;15.98;5.60;;;11.80;99.90;;;;;;5088429;28;20179;-66
2021/10/12 06:02:29;;;;;;;16.77;6.70;;;12.00;99.90;;;;;;5089516;28;20171;-66
2021/10/12 06:04:54;;;;;;;19.58;6.28;;;11.90;99.90;;;;;;5088166;28;20168;-66
2021/10/12 06:07:20;;;;;;;12.45;7.10;;;12.00;99.90;;;;;;5087948;28;20239;-66
2021/10/12 06:09:46;;;;;;;17.33;7.43;;;12.10;99.90;;;;;;5088889;28;20203;-66
2021/10/12 06:12:11;;;;;;;11.60;6.70;;;12.00;99.90;;;;;;5089584;28;20164;-66
2021/10/12 06:14:37;;;;;;;14.85;6.78;;;12.00;99.90;;;;;;5089460;28;20184;-66
2021/10/12 06:17:03;;;;;;;14.27;6.47;;;12.10;99.90;;;;;;5089011;28;20232;-66
2021/10/12 06:19:28;;;;;;;18.60;7.75;;;12.10;99.90;;;;;;5089446;28;20157;-66
2021/10/12 06:21:54;;;;;;;16.02;7.50;;;12.10;99.90;;;;;;5089122;28;20220;-66
2021/10/12 06:24:19;;;;;;;18.55;8.32;;;12.20;99.90;;;;;;5088892;28;20191;-66
2021/10/12 06:26:45;;;;;;;15.23;8.05;;;12.30;99.90;;;;;;5088969;28;20179;-66
2021/10/12 06:29:11;;;;;;;20.58;8.88;;;12.30;99.90;;;;;;5088010;28;20223;-66
2021/10/12 06:31:37;;;;;;;14.68;7.85;;;12.20;99.90;;;;;;5088925;28;20153;-66
2021/10/12 06:34:03;;;;;;;16.70;7.53;;;12.20;99.90;;;;;;5088983;28;20184;-66
2021/10/12 06:36:30;;;;;;;17.98;7.88;;;12.20;99.90;;;;;;5088776;28;20171;-66
2021/10/12 06:38:56;;;;;;;18.63;7.40;;;12.20;99.90;;;;;;5088608;28;20255;-66
2021/10/12 06:41:21;;;;;;;20.13;8.15;;;12.10;99.90;;;;;;5089043;28;20161;-66
2021/10/12 06:43:47;;;;;;;16.95;8.10;;;12.10;99.90;;;;;;5088865;28;20188;-66
2021/10/12 06:46:14;;;;;;;24.08;8.15;;;12.00;99.90;;;;;;5088672;28;20152;-65
2021/10/12 06:48:39;;;;;;;24.90;8.13;;;12.10;99.90;;;;;;5088992;28;20192;-66
2021/10/12 06:51:05;;;;;;;19.52;7.93;;;12.00;99.90;;;;;;5088715;28;20536;-66
2021/10/12 06:53:31;;;;;;;17.15;7.53;;;12.10;99.90;;;;;;5088424;28;20168;-65
2021/10/12 06:55:57;;;;;;;20.92;8.18;;;12.10;99.90;;;;;;5088517;28;20195;-66
2021/10/12 06:58:23;;;;;;;20.17;8.43;;;12.20;99.90;;;;;;5088726;28;20160;-66
2021/10/12 07:00:48;;;;;;;22.15;7.35;;;12.30;99.90;;;;;;5088475;28;20164;-66
2021/10/12 07:03:14;;;;;;;19.88;7.78;;;12.30;99.90;;;;;;5088563;28;20217;-66
2021/10/12 07:05:39;;;;;;;17.42;8.30;;;12.20;99.90;;;;;;5087257;28;20156;-66
2021/10/12 07:08:06;;;;;;;24.35;7.47;;;12.30;99.90;;;;;;5088241;28;20164;-65
2021/10/12 07:10:31;;;;;;;21.00;7.63;;;12.20;99.90;;;;;;5088188;28;20584;-66
2021/10/12 07:12:57;;;;;;;20.60;7.20;;;12.20;99.90;;;;;;5088442;28;20196;-66
2021/10/12 07:15:23;;;;;;;26.73;7.80;;;12.20;99.90;;;;;;5087870;28;20187;-65
2021/10/12 07:17:48;;;;;;;20.52;6.93;;;12.20;99.90;;;;;;5088209;28;20168;-66
2021/10/12 07:20:14;;;;;;;31.25;8.55;;;12.20;99.90;;;;;;5088387;28;20161;-66
2021/10/12 07:22:40;;;;;;;25.77;7.47;;;12.30;99.90;;;;;;5087968;28;20168;-66
2021/10/12 07:25:07;;;;;;;18.50;6.90;;;12.20;99.90;;;;;;5087829;28;20172;-66
2021/10/12 07:27:34;;;;;;;21.23;7.78;;;12.30;99.90;;;;;;5087705;28;20168;-66
2021/10/12 07:30:00;;;;;;;22.27;7.10;;;12.30;99.90;;;;;;5088051;28;20164;-66
2021/10/12 07:32:25;;;;;;;21.15;6.40;;;12.40;99.90;;;;;;5088002;28;20226;-66
2021/10/12 07:34:51;;;;;;;27.42;6.93;;;12.50;99.90;;;;;;5087897;28;20251;-66
2021/10/12 07:37:17;;;;;;;22.05;6.95;;;12.60;99.90;;;;;;5087417;28;20202;-66
2021/10/12 07:39:42;;;;;;;18.25;7.20;;;12.70;99.90;;;;;;5087329;28;20167;-66
2021/10/12 07:42:10;;;;;;;23.25;6.78;;;12.70;99.90;;;;;;5088104;28;20190;-66
2021/10/12 07:44:37;;;;;;;22.85;6.75;;;12.60;99.90;;;;;;5087667;28;20175;-66
2021/10/12 07:47:04;;;;;;;19.60;6.78;;;12.60;99.90;;;;;;5087256;28;20167;-66
2021/10/12 07:49:30;;;;;;;15.10;6.53;;;12.70;99.90;;;;;;5087742;28;20172;-66
2021/10/12 07:51:55;;;;;;;21.42;7.05;;;12.70;99.90;;;;;;5087545;28;20187;-66
2021/10/12 07:54:36;;;;;;;19.15;6.55;;;12.70;99.90;;;;;;5087267;28;20216;-66
2021/10/12 07:57:02;;;;;;;20.90;5.88;;;12.70;99.90;;;;;;5085882;28;20172;-65
2021/10/12 07:59:27;;;;;;;16.27;5.82;;;12.70;99.90;;;;;;5087686;28;20183;-66
2021/10/12 08:01:56;;;;;;;24.40;6.88;;;12.70;99.90;;;;;;5087221;28;20163;-66
2021/10/12 08:04:21;;;;;;;17.35;6.35;;;13.00;99.90;;;;;;5087360;28;20164;-66
2021/10/12 08:06:47;;;;;;;21.85;6.47;;;13.00;99.90;;;;;;5086918;28;20172;-66
2021/10/12 08:09:13;;;;;;;19.48;6.95;;;13.00;99.90;;;;;;5085312;28;20212;-66
2021/10/12 08:11:39;;;;;;;16.90;6.07;;;13.10;99.90;;;;;;5087230;28;20186;-66
2021/10/12 08:14:07;;;;;;;20.45;5.78;;;13.30;99.90;;;;;;5087023;28;20684;-66
2021/10/12 08:16:33;;;;;;;23.20;6.30;;;13.40;99.90;;;;;;5086857;28;20168;-66
2021/10/12 08:19:03;;;;;;;27.20;6.82;;;13.40;99.90;;;;;;5085999;28;20375;-66
2021/10/12 08:21:30;;;;;;;14.00;5.32;;;13.40;99.90;;;;;;5086731;28;20515;-66
2021/10/12 08:23:57;;;;;;;22.05;5.53;;;13.40;99.90;;;;;;5086555;28;20175;-66
2021/10/12 08:26:23;;;;;;;18.70;5.63;;;13.60;99.90;;;;;;5086606;28;20171;-65
2021/10/12 08:28:49;;;;;;;20.77;6.05;;;13.70;99.90;;;;;;5086856;28;20580;-66
2021/10/12 08:31:15;;;;;;;16.77;5.13;;;13.70;99.90;;;;;;5086797;28;20246;-66
2021/10/12 08:33:41;;;;;;;17.63;5.20;;;13.60;99.90;;;;;;5086805;28;20160;-66
2021/10/12 08:36:07;;;;;;;17.55;5.70;;;13.60;99.90;;;;;;5086459;28;20175;-66
2021/10/12 08:38:34;;;;;;;20.73;5.65;;;13.60;99.90;;;;;;5086298;28;20156;-66
2021/10/12 08:41:05;;;;;;;14.48;4.18;;;13.70;99.90;;;;;;5085270;28;20714;-66
2021/10/12 08:43:32;;;;;;;22.95;5.18;;;13.80;99.90;;;;;;5085183;28;20164;-66
2021/10/12 08:45:59;;;;;;;14.48;4.95;;;13.80;99.90;;;;;;5086420;28;20188;-66
2021/10/12 08:48:26;;;;;;;16.67;4.85;;;13.90;99.90;;;;;;5086339;28;20168;-66
2021/10/12 08:50:51;;;;;;;20.63;4.97;;;13.90;99.90;;;;;;5086225;28;20651;-65
2021/10/12 08:53:17;;;;;;;16.02;5.10;;;13.90;99.90;;;;;;5086327;28;20164;-66
2021/10/12 08:55:43;;;;;;;16.40;4.80;;;13.90;99.90;;;;;;5085915;28;20226;-66
2021/10/12 08:58:11;;;;;;;19.05;5.65;;;13.90;99.90;;;;;;5086243;28;20164;-66
2021/10/12 09:00:38;;;;;;;28.25;5.53;;;14.00;99.90;;;;;;5086279;28;20164;-66
2021/10/12 09:06:02;;;;;;;12.20;4.53;;;14.10;99.90;;;;;;5086159;28;20251;-65
2021/10/12 09:08:29;;;;;;;14.45;4.90;;;14.10;99.90;;;;;;5085550;28;20152;-65
2021/10/12 09:10:57;;;;;;;21.20;5.07;;;13.90;99.90;;;;;;5086126;28;20157;-66
2021/10/12 09:13:23;;;;;;;18.30;4.47;;;14.00;99.90;;;;;;5086166;28;20437;-66
2021/10/12 09:16:09;;;;;;;24.25;4.70;;;14.10;99.90;;;;;;5085953;28;20187;-66
2021/10/12 09:18:46;;;;;;;27.80;5.22;;;14.30;99.90;;;;;;5086120;28;20160;-66
2021/10/12 09:21:14;;;;;;;16.77;4.50;;;14.40;99.90;;;;;;5085851;28;20193;-66
2021/10/12 09:23:41;;;;;;;18.23;4.68;;;14.40;99.90;;;;;;5085799;28;20164;-66
2021/10/12 09:26:22;;;;;;;20.20;4.68;;;14.40;99.90;;;;;;5085995;28;20225;-66
2021/10/12 09:28:48;;;;;;;17.42;4.80;;;14.50;99.90;;;;;;5085946;28;20166;-66
2021/10/12 09:31:14;;;;;;;19.13;4.45;;;14.50;99.90;;;;;;5085942;28;20164;-66
2021/10/12 09:33:50;;;;;;;14.05;3.83;;;14.60;99.90;;;;;;5085940;28;20164;-66
2021/10/12 09:36:35;;;;;;;16.13;4.22;;;14.70;99.90;;;;;;5085800;28;20175;-66
2021/10/12 09:39:02;;;;;;;18.17;4.32;;;14.50;99.90;;;;;;5085530;28;20213;-66
2021/10/12 09:41:28;;;;;;;24.35;4.10;;;14.50;99.90;;;;;;5086081;28;20210;-66
2021/10/12 09:44:18;;;;;;;14.80;4.57;;;14.40;99.90;;;;;;5086039;28;20175;-66
2021/10/12 09:46:46;;;;;;;21.13;4.70;;;14.40;99.90;;;;;;5085687;28;20172;-66
2021/10/12 09:49:24;;;;;;;15.98;4.55;;;14.40;99.90;;;;;;5085915;28;20161;-66
2021/10/12 09:52:08;;;;;;;21.48;4.57;;;14.40;99.90;;;;;;5085731;28;20164;-66
2021/10/12 09:54:48;;;;;;;13.20;4.70;;;14.40;99.90;;;;;;5085435;28;20213;-66
2021/10/12 09:57:18;;;;;;;17.55;4.63;;;14.40;99.90;;;;;;5084257;28;20172;-66
2021/10/12 09:59:44;;;;;;;16.58;4.97;;;14.40;99.90;;;;;;5085794;28;20180;-66
2021/10/12 10:02:22;;;;;;;16.92;5.03;;;14.60;99.90;;;;;;5085602;28;20170;-66
2021/10/12 10:04:49;;;;;;;16.30;5.15;;;14.70;99.90;;;;;;5085923;28;20187;-66
2021/10/12 10:07:36;;;;;;;26.88;5.20;;;14.90;99.90;;;;;;5085304;28;20168;-66
2021/10/12 10:10:05;;;;;;;17.00;4.55;;;14.90;99.90;;;;;;5084972;28;20223;-66
2021/10/12 10:12:31;;;;;;;18.13;4.47;;;15.10;99.90;;;;;;5085796;28;20164;-66
2021/10/12 10:14:57;;;;;;;17.55;4.10;;;15.30;99.90;;;;;;5085533;28;20175;-66
2021/10/12 10:17:23;;;;;;;14.18;4.07;;;15.20;99.90;;;;;;5085187;28;20175;-66
2021/10/12 10:19:50;;;;;;;17.25;3.97;;;15.10;99.90;;;;;;5085520;28;20156;-66
2021/10/12 10:22:42;;;;;;;13.70;4.22;;;15.10;99.90;;;;;;5085287;28;20164;-66
2021/10/12 10:25:26;;;;;;;12.38;3.72;;;15.10;99.90;;;;;;5085482;28;20164;-66
2021/10/12 10:27:53;;;;;;;12.38;3.22;;;15.40;99.90;;;;;;5085287;28;20221;-66
2021/10/12 10:30:23;;;;;;;12.15;3.70;;;15.40;99.90;;;;;;5085560;28;20168;-66
2021/10/12 10:33:00;;;;;;;13.18;3.58;;;15.50;99.90;;;;;;5085307;28;20164;-66
2021/10/12 10:35:44;;;;;;;16.45;3.33;;;15.60;99.90;;;;;;5085315;28;20176;-66
2021/10/12 10:38:33;;;;;;;14.98;3.40;;;15.70;99.90;;;;;;5083878;28;20561;-66
2021/10/12 10:41:04;;;;;;;11.60;3.40;;;15.70;99.90;;;;;;5085737;28;20178;-66
2021/10/12 10:43:48;;;;;;;15.02;3.83;;;15.70;99.90;;;;;;5088763;28;20166;-66
2021/10/12 10:46:32;;;;;;;14.45;3.75;;;15.50;99.90;;;;;;5088686;28;20187;-66
2021/10/12 10:49:24;;;;;;;14.00;4.28;;;15.40;99.90;;;;;;5088749;28;20164;-66
2021/10/12 10:52:04;;;;;;;15.88;3.65;;;15.30;99.90;;;;;;5088519;28;20156;-66
2021/10/12 10:54:45;;;;;;;22.73;4.30;;;15.30;99.90;;;;;;5088074;28;20187;-66
2021/10/12 10:57:14;;;;;;;11.23;3.55;;;15.40;99.90;;;;;;5088516;28;20172;-67
2021/10/12 10:59:40;;;;;;;16.98;4.30;;;15.60;99.90;;;;;;5088547;28;20281;-66
2021/10/12 11:02:28;;;;;;;11.63;3.67;;;15.60;99.90;;;;;;5088360;28;20271;-66
2021/10/12 11:04:54;;;;;;;11.15;3.00;;;15.50;99.90;;;;;;5087117;28;20171;-66
2021/10/12 11:07:24;;;;;;;8.55;2.58;;;15.40;99.90;;;;;;5086806;28;20180;-66
2021/10/12 11:09:51;;;;;;;9.23;2.83;;;15.30;99.90;;;;;;5087904;28;20223;-66
2021/10/12 11:12:29;;;;;;;15.68;3.08;;;15.10;99.90;;;;;;5088609;28;20191;-66
2021/10/12 11:15:05;;;;;;;14.70;2.90;;;15.00;99.90;;;;;;5088301;28;20194;-66
2021/10/12 11:17:31;;;;;;;12.15;2.72;;;14.90;99.90;;;;;;5088012;28;20156;-66
2021/10/12 11:20:06;;;;;;;17.17;2.88;;;14.90;99.90;;;;;;5088179;28;20181;-66
2021/10/12 11:22:31;;;;;;;11.88;2.95;;;15.10;99.90;;;;;;5088080;28;20168;-66
2021/10/12 11:25:00;;;;;;;6.60;2.45;;;15.10;99.90;;;;;;5087759;28;20174;-66
2021/10/12 11:27:26;;;;;;;11.52;2.75;;;15.20;99.90;;;;;;5087542;28;20232;-66
2021/10/12 11:30:09;;;;;;;12.52;2.83;;;15.30;99.90;;;;;;5087989;28;20168;-66
2021/10/12 11:32:35;;;;;;;11.32;2.47;;;15.50;99.90;;;;;;5087449;28;20593;-66
2021/10/12 11:35:05;;;;;;;8.80;2.40;;;15.50;99.90;;;;;;5087861;28;20184;-66
2021/10/12 11:37:31;;;;;;;11.50;3.10;;;15.40;99.90;;;;;;5087364;28;20483;-66
2021/10/12 11:40:17;;;;;;;7.20;2.30;;;15.30;99.90;;;;;;5087656;28;20227;-66
2021/10/12 11:42:43;;;;;;;15.10;3.63;;;15.20;99.90;;;;;;5087930;28;20154;-66
2021/10/12 11:45:09;;;;;;;6.47;2.60;;;15.00;99.90;;;;;;5087647;28;20578;-66
2021/10/12 11:47:35;;;;;;;11.45;2.78;;;14.80;99.90;;;;;;5087362;28;20168;-66
2021/10/12 11:50:11;;;;;;;9.02;2.65;;;14.70;99.90;;;;;;5087693;28;20172;-66
2021/10/12 11:52:37;;;;;;;15.55;4.15;;;14.60;99.90;;;;;;5087166;28;20190;-66
2021/10/12 11:55:05;;;;;;;19.73;3.22;;;14.60;99.90;;;;;;5086813;28;20188;-66
2021/10/12 11:57:30;;;;;;;12.95;3.40;;;14.50;99.90;;;;;;5087059;28;20172;-66
2021/10/12 11:59:56;;;;;;;14.73;3.65;;;14.50;99.90;;;;;;5087507;28;20247;-66
2021/10/12 12:02:22;;;;;;;12.88;3.63;;;14.70;99.90;;;;;;5087160;28;20164;-66
2021/10/12 12:04:48;;;;;;;10.10;4.07;;;14.50;99.90;;;;;;5087353;28;20164;-66
2021/10/12 12:07:14;;;;;;;14.70;4.20;;;14.40;99.90;;;;;;5085604;28;20179;-66
2021/10/12 12:09:43;;;;;;;10.20;4.40;;;14.50;99.90;;;;;;5086500;28;20235;-66
2021/10/12 12:12:09;;;;;;;12.20;4.40;;;14.60;99.90;;;;;;5087270;28;20170;-66
2021/10/12 12:14:35;;;;;;;17.55;5.82;;;14.70;99.90;;;;;;5085755;28;20256;-66
2021/10/12 12:17:21;;;;;;;11.07;3.88;;;14.80;99.90;;;;;;5086847;28;20195;-66
2021/10/12 12:19:49;;;;;;;9.90;4.15;;;14.60;99.90;;;;;;5087247;28;20548;-66
2021/10/12 12:22:39;;;;;;;14.60;4.35;;;14.50;99.90;;;;;;5087024;28;20235;-66
2021/10/12 12:25:07;;;;;;;13.07;4.50;;;14.50;99.90;;;;;;5085455;28;20176;-66
2021/10/12 12:27:54;;;;;;;15.43;4.65;;;14.60;99.90;;;;;;5086525;28;20167;-66
2021/10/12 12:30:33;;;;;;;12.82;5.55;;;14.50;99.90;;;;;;5086831;28;20246;-66
2021/10/12 12:33:00;;;;;;;16.20;5.03;;;14.30;99.90;;;;;;5085924;28;20190;-66
2021/10/12 12:35:26;;;;;;;15.35;4.80;;;14.20;99.90;;;;;;5086449;28;20203;-66
2021/10/12 12:38:01;;;;;;;17.23;5.15;;;14.10;99.90;;;;;;5086381;28;20696;-66
2021/10/12 12:40:28;;;;;;;14.18;5.72;;;14.00;99.90;;;;;;5086549;28;20160;-66
2021/10/12 12:42:55;;;;;;;22.15;5.80;;;13.90;99.90;;;;;;5086646;28;20165;-66
2021/10/12 12:45:22;;;;;;;13.07;5.30;;;13.80;99.90;;;;;;5086186;28;20171;-66